< < Back
Terminal Aerodrome Forecast


Current Version              Previous Versions:   1  2  3  4  5  6  7  8  9  

Terminal Aerodrome Forecast

929
FTUS42 KCHS 210000 AAA
TAFSAV
TAF AMD
KSAV 210057Z 2101/2124 12004KT P6SM SCT040 BKN150
     FM210300 VRB03KT P6SM VCSH SCT020 BKN040
     FM211000 31006KT P6SM SCT040 SCT090
     FM211600 28008G15KT P6SM SKC=

Latest METAR

119
SAUS80 KWBC 211200 RRB
MTRSAV
METAR KSAV 211153Z 00000KT 7SM BCFG FEW035 16/14 A2998 RMK AO2 SLP150
60032 70040 T01610144 10200 20150 53006


USA.gov is the U.S. government's official web portal to all federal, state and local government web resources and services.